createdAt,value
2018-12-24T00:00:37.755Z,90
2018-12-24T00:01:47.983Z,90
2018-12-24T00:02:58.292Z,90
2018-12-24T00:04:08.454Z,90
2018-12-24T00:05:18.652Z,90
2018-12-24T00:06:28.862Z,90
2018-12-24T00:07:39.710Z,90
2018-12-24T00:08:49.958Z,90
2018-12-24T00:10:00.182Z,90
2018-12-24T00:11:10.470Z,90
2018-12-24T00:12:20.683Z,90
2018-12-24T00:13:30.923Z,90
2018-12-24T00:14:41.123Z,90
2018-12-24T00:15:51.707Z,90
2018-12-24T00:17:01.958Z,90
2018-12-24T00:18:12.228Z,90
2018-12-24T00:19:22.409Z,91
2018-12-24T00:20:32.593Z,91
2018-12-24T00:21:42.764Z,91
2018-12-24T00:22:53.015Z,91
2018-12-24T00:24:03.314Z,91
2018-12-24T00:25:13.697Z,91
2018-12-24T00:26:23.969Z,91
2018-12-24T00:27:34.217Z,91
2018-12-24T00:28:44.517Z,91
2018-12-24T00:29:54.841Z,91
2018-12-24T00:31:05.081Z,91
2018-12-24T00:32:15.260Z,90
2018-12-24T00:33:25.517Z,91
2018-12-24T00:34:35.760Z,91
2018-12-24T00:35:45.945Z,90
2018-12-24T00:36:56.278Z,90
2018-12-24T00:38:06.430Z,90
2018-12-24T00:39:16.788Z,90
2018-12-24T00:40:27.158Z,90
2018-12-24T00:41:37.475Z,90
2018-12-24T00:42:47.667Z,90
2018-12-24T00:43:57.899Z,90
2018-12-24T00:45:08.083Z,90
2018-12-24T00:46:18.261Z,90
2018-12-24T00:47:28.457Z,90
2018-12-24T00:48:38.622Z,90
2018-12-24T00:49:48.844Z,90
2018-12-24T00:50:59.202Z,90
2018-12-24T00:52:09.499Z,90
2018-12-24T00:53:19.750Z,90
2018-12-24T00:54:30.051Z,90
2018-12-24T00:55:40.459Z,90
2018-12-24T00:56:50.858Z,90
2018-12-24T00:58:01.201Z,90
2018-12-24T00:59:11.386Z,90
2018-12-24T01:00:21.648Z,90
2018-12-24T01:01:31.900Z,90
2018-12-24T01:02:42.285Z,90
2018-12-24T01:03:52.434Z,90
2018-12-24T01:05:02.601Z,90
2018-12-24T01:06:12.853Z,90
2018-12-24T01:07:23.097Z,90
2018-12-24T01:08:33.407Z,90
2018-12-24T01:09:43.644Z,90
2018-12-24T01:10:53.781Z,89
2018-12-24T01:12:03.936Z,89
2018-12-24T01:13:14.059Z,89
2018-12-24T01:14:24.321Z,89
2018-12-24T01:15:34.645Z,89
2018-12-24T01:16:44.815Z,89
2018-12-24T01:17:55.098Z,89
2018-12-24T01:19:05.558Z,89
2018-12-24T01:20:15.708Z,89
2018-12-24T01:21:26.009Z,89
2018-12-24T01:22:36.205Z,89
2018-12-24T01:23:46.417Z,88
2018-12-24T01:24:56.764Z,88
2018-12-24T01:26:07.126Z,88
2018-12-24T01:27:17.360Z,88
2018-12-24T01:28:27.610Z,88
2018-12-24T01:29:37.787Z,88
2018-12-24T01:30:47.988Z,88
2018-12-24T01:31:58.087Z,88
2018-12-24T01:33:08.379Z,88
2018-12-24T01:34:18.651Z,88
2018-12-24T01:35:29.254Z,88
2018-12-24T01:36:39.528Z,88
2018-12-24T01:37:49.746Z,88
2018-12-24T01:38:59.852Z,88
2018-12-24T01:40:10.158Z,88
2018-12-24T01:41:20.501Z,88
2018-12-24T01:42:34.737Z,88
2018-12-24T01:42:45.322Z,88
2018-12-24T01:42:55.893Z,88
2018-12-24T01:43:06.468Z,88
2018-12-24T01:43:17.480Z,88
2018-12-24T01:43:29.205Z,88
2018-12-24T01:43:42.613Z,88
2018-12-24T01:43:59.240Z,88
2018-12-24T01:44:22.287Z,88
2018-12-24T01:44:58.195Z,88
2018-12-24T01:45:59.621Z,88
2018-12-24T01:47:09.785Z,88
2018-12-24T01:48:19.998Z,88
2018-12-24T01:49:30.330Z,88
2018-12-24T01:50:40.683Z,88
2018-12-24T01:51:50.919Z,88
2018-12-24T01:53:01.128Z,88
2018-12-24T01:54:11.484Z,88
2018-12-24T01:55:21.726Z,88
2018-12-24T01:56:32.102Z,88
2018-12-24T01:57:42.376Z,88
2018-12-24T01:58:53.040Z,88
2018-12-24T02:00:03.229Z,88
2018-12-24T02:01:13.620Z,88
2018-12-24T02:02:23.844Z,88
2018-12-24T02:03:34.194Z,88
2018-12-24T02:04:44.450Z,88
2018-12-24T02:05:54.597Z,88
2018-12-24T02:07:04.826Z,88
2018-12-24T02:08:15.171Z,88
2018-12-24T02:09:25.536Z,88
2018-12-24T02:10:35.694Z,88
2018-12-24T02:11:45.939Z,88
2018-12-24T02:12:56.165Z,88
2018-12-24T02:14:06.540Z,88
2018-12-24T02:15:16.858Z,88
2018-12-24T02:16:27.148Z,88
2018-12-24T02:16:39.486Z,88
2018-12-24T02:16:51.825Z,88
2018-12-24T02:17:04.157Z,88
2018-12-24T02:17:16.500Z,88
2018-12-24T02:17:28.901Z,88
2018-12-24T02:17:41.258Z,88
2018-12-24T02:17:53.715Z,88
2018-12-24T02:18:06.062Z,88
2018-12-24T02:18:18.534Z,88
2018-12-24T02:18:30.877Z,88
2018-12-24T02:18:43.217Z,88
2018-12-24T02:18:55.684Z,88
2018-12-24T02:19:08.023Z,88
2018-12-24T02:19:20.374Z,88
2018-12-24T02:19:32.746Z,88
2018-12-24T02:19:45.156Z,88
2018-12-24T02:19:57.636Z,88
2018-12-24T02:20:09.974Z,88
2018-12-24T02:20:22.416Z,88
2018-12-24T02:20:34.752Z,88
2018-12-24T02:20:47.119Z,88
2018-12-24T02:20:59.577Z,88
2018-12-24T02:21:11.943Z,88
2018-12-24T02:21:24.400Z,88
2018-12-24T02:21:36.745Z,88
2018-12-24T02:21:49.144Z,88
2018-12-24T02:22:01.481Z,88
2018-12-24T02:22:21.798Z,88
2018-12-24T02:22:34.129Z,88
2018-12-24T02:22:46.501Z,88
2018-12-24T02:22:58.851Z,88
2018-12-24T02:23:11.193Z,88
2018-12-24T02:23:23.538Z,88
2018-12-24T02:23:35.884Z,88
2018-12-24T02:23:48.239Z,88
2018-12-24T02:24:00.671Z,88
2018-12-24T02:24:13.282Z,88
2018-12-24T02:24:25.635Z,88
2018-12-24T02:24:38.000Z,88
2018-12-24T02:24:50.356Z,88
2018-12-24T02:25:02.771Z,88
2018-12-24T02:25:15.207Z,88
2018-12-24T02:25:27.550Z,88
2018-12-24T02:25:40.028Z,88
2018-12-24T02:25:52.368Z,88
2018-12-24T02:26:04.725Z,88
2018-12-24T02:26:17.074Z,88
2018-12-24T02:26:29.412Z,88
2018-12-24T02:26:41.839Z,88
2018-12-24T02:26:54.326Z,88
2018-12-24T02:27:06.761Z,88
2018-12-24T02:27:19.141Z,88
2018-12-24T02:27:31.498Z,88
2018-12-24T02:27:43.846Z,88
2018-12-24T02:27:56.365Z,88
2018-12-24T02:28:08.719Z,88
2018-12-24T02:28:21.255Z,87
2018-12-24T02:28:33.619Z,87
2018-12-24T02:28:46.091Z,87
2018-12-24T02:28:58.436Z,87
2018-12-24T02:29:10.799Z,87
2018-12-24T02:29:23.255Z,87
2018-12-24T02:29:35.585Z,87
2018-12-24T02:29:47.926Z,87
2018-12-24T02:30:00.301Z,87
2018-12-24T02:30:12.911Z,88
2018-12-24T02:30:25.357Z,88
2018-12-24T02:30:37.831Z,88
2018-12-24T02:30:50.277Z,88
2018-12-24T02:31:02.680Z,88
2018-12-24T02:31:15.081Z,88
2018-12-24T02:31:27.459Z,88
2018-12-24T02:31:39.852Z,88
2018-12-24T02:31:52.222Z,88
2018-12-24T02:32:04.582Z,88
2018-12-24T02:32:16.962Z,88
2018-12-24T02:32:29.359Z,88
2018-12-24T02:32:41.729Z,88
2018-12-24T02:32:54.107Z,88
2018-12-24T02:33:06.455Z,88
2018-12-24T02:33:18.845Z,88
2018-12-24T02:33:31.361Z,88
2018-12-24T02:33:43.711Z,88
2018-12-24T02:33:56.178Z,88
2018-12-24T02:34:08.590Z,88
2018-12-24T02:34:20.983Z,88
2018-12-24T02:34:33.547Z,88
2018-12-24T02:34:45.938Z,88
2018-12-24T02:34:58.289Z,88
2018-12-24T02:35:10.696Z,88
2018-12-24T02:35:23.095Z,88
2018-12-24T02:35:35.682Z,88
2018-12-24T02:35:48.108Z,88
2018-12-24T02:36:00.658Z,88
2018-12-24T02:36:13.031Z,88
2018-12-24T02:36:25.433Z,88
2018-12-24T02:36:37.934Z,88
2018-12-24T02:36:50.323Z,88
2018-12-24T02:37:02.724Z,88
2018-12-24T02:37:15.124Z,88
2018-12-24T02:37:27.500Z,88
2018-12-24T02:37:39.860Z,88
2018-12-24T02:37:52.224Z,88
2018-12-24T02:38:04.599Z,88
2018-12-24T02:38:16.996Z,88
2018-12-24T02:38:29.366Z,88
2018-12-24T02:38:41.867Z,88
2018-12-24T02:38:54.253Z,88
2018-12-24T02:39:06.643Z,88
2018-12-24T02:39:19.000Z,88
2018-12-24T02:39:31.558Z,88
2018-12-24T02:39:43.940Z,88
2018-12-24T02:39:56.519Z,88
2018-12-24T02:40:08.905Z,88
2018-12-24T02:40:21.284Z,88
2018-12-24T02:40:33.651Z,88
2018-12-24T02:40:46.025Z,88
2018-12-24T02:40:58.429Z,88
2018-12-24T02:41:11.177Z,88
2018-12-24T02:41:23.562Z,88
2018-12-24T02:41:35.947Z,88
2018-12-24T02:41:48.312Z,88
2018-12-24T02:42:00.721Z,88
2018-12-24T02:42:13.094Z,88
2018-12-24T02:42:25.468Z,88
2018-12-24T02:42:37.834Z,88
2018-12-24T02:43:00.296Z,88
2018-12-24T02:43:12.666Z,88
2018-12-24T02:43:25.025Z,88
2018-12-24T02:43:37.393Z,88
2018-12-24T02:43:49.778Z,88
2018-12-24T02:44:02.162Z,88
2018-12-24T02:44:14.527Z,88
2018-12-24T02:44:26.893Z,88
2018-12-24T02:44:39.278Z,87
2018-12-24T02:44:51.658Z,87
2018-12-24T02:45:04.062Z,87
2018-12-24T02:45:16.670Z,87
2018-12-24T02:45:29.144Z,87
2018-12-24T02:45:41.488Z,87
2018-12-24T02:45:53.852Z,87
2018-12-24T02:46:06.218Z,87
2018-12-24T02:46:18.591Z,88
2018-12-24T02:46:30.951Z,88
2018-12-24T02:46:43.321Z,88
2018-12-24T02:46:55.781Z,88
2018-12-24T02:47:08.362Z,88
2018-12-24T02:47:20.716Z,87
2018-12-24T02:47:33.104Z,87
2018-12-24T02:47:45.658Z,87
2018-12-24T02:47:58.086Z,87
2018-12-24T02:48:10.438Z,87
2018-12-24T02:48:22.894Z,87
2018-12-24T02:48:35.291Z,87
2018-12-24T02:48:47.651Z,87
2018-12-24T02:49:00.119Z,87
2018-12-24T02:49:12.481Z,87
2018-12-24T02:49:24.854Z,87
2018-12-24T02:49:37.197Z,87
2018-12-24T02:49:49.576Z,87
2018-12-24T02:50:01.943Z,87
2018-12-24T02:50:14.464Z,87
2018-12-24T02:50:26.954Z,87
2018-12-24T02:50:39.319Z,87
2018-12-24T02:50:51.684Z,87
2018-12-24T02:51:04.037Z,87
2018-12-24T02:51:16.386Z,87
2018-12-24T02:51:28.896Z,87
2018-12-24T02:51:41.259Z,87
2018-12-24T02:51:53.630Z,87
2018-12-24T02:52:06.008Z,87
2018-12-24T02:52:18.373Z,87
2018-12-24T02:52:30.913Z,87
2018-12-24T02:52:43.269Z,87
2018-12-24T02:52:55.634Z,87
2018-12-24T02:53:08.035Z,87
2018-12-24T02:53:20.415Z,87
2018-12-24T02:53:32.787Z,87
2018-12-24T02:53:45.147Z,87
2018-12-24T02:53:57.688Z,87
2018-12-24T02:54:10.056Z,87
2018-12-24T02:54:22.434Z,87
2018-12-24T02:54:34.849Z,87
2018-12-24T02:54:47.238Z,87
2018-12-24T02:54:59.745Z,87
2018-12-24T02:55:12.241Z,87
2018-12-24T02:55:24.618Z,87
2018-12-24T02:55:36.978Z,87
2018-12-24T02:55:49.323Z,87
2018-12-24T02:56:01.812Z,87
2018-12-24T02:56:14.232Z,87
2018-12-24T02:56:26.781Z,87
2018-12-24T02:56:39.272Z,87
2018-12-24T02:56:51.679Z,87
2018-12-24T02:57:04.185Z,87
2018-12-24T02:57:16.555Z,87
2018-12-24T02:57:28.918Z,87
2018-12-24T02:57:41.406Z,87
2018-12-24T02:57:53.760Z,87
2018-12-24T02:58:06.274Z,87
2018-12-24T02:58:18.660Z,87
2018-12-24T02:58:31.062Z,87
2018-12-24T02:58:43.508Z,87
2018-12-24T02:58:55.873Z,87
2018-12-24T02:59:08.248Z,87
2018-12-24T02:59:20.601Z,87
2018-12-24T02:59:32.985Z,87
2018-12-24T02:59:45.345Z,87
2018-12-24T02:59:57.821Z,87
2018-12-24T03:00:10.418Z,87
2018-12-24T03:00:22.831Z,87
2018-12-24T03:00:35.326Z,87
2018-12-24T03:00:47.714Z,87
2018-12-24T03:01:00.108Z,87
2018-12-24T03:01:12.492Z,87
2018-12-24T03:01:24.846Z,87
2018-12-24T03:01:37.287Z,87
2018-12-24T03:01:49.661Z,87
2018-12-24T03:02:02.024Z,87
2018-12-24T03:02:14.422Z,87
2018-12-24T03:02:26.792Z,87
2018-12-24T03:02:39.184Z,87
2018-12-24T03:02:51.730Z,87
2018-12-24T03:03:04.139Z,87
2018-12-24T03:03:16.532Z,87
2018-12-24T03:03:28.962Z,87
2018-12-24T03:03:41.400Z,87
2018-12-24T03:03:53.769Z,87
2018-12-24T03:04:06.163Z,87
2018-12-24T03:04:18.546Z,87
2018-12-24T03:04:30.936Z,87
2018-12-24T03:04:43.302Z,87
2018-12-24T03:04:55.669Z,87
2018-12-24T03:05:08.164Z,87
2018-12-24T03:05:20.546Z,87
2018-12-24T03:05:32.919Z,87
2018-12-24T03:05:45.390Z,87
2018-12-24T03:05:57.780Z,87
2018-12-24T03:06:10.153Z,87
2018-12-24T03:06:22.564Z,87
2018-12-24T03:06:34.940Z,87
2018-12-24T03:06:47.295Z,87
2018-12-24T03:06:59.686Z,87
2018-12-24T03:07:12.080Z,87
2018-12-24T03:07:24.469Z,87
2018-12-24T03:07:36.945Z,87
2018-12-24T03:07:49.348Z,87
2018-12-24T03:08:01.718Z,87
2018-12-24T03:08:14.136Z,87
2018-12-24T03:08:26.643Z,87
2018-12-24T03:08:39.033Z,87
2018-12-24T03:08:51.430Z,87
2018-12-24T03:09:03.830Z,87
2018-12-24T03:09:16.241Z,87
2018-12-24T03:09:28.810Z,87
2018-12-24T03:09:41.213Z,87
2018-12-24T03:09:53.545Z,87
2018-12-24T03:10:05.922Z,87
2018-12-24T03:10:18.314Z,87
2018-12-24T03:10:30.803Z,87
2018-12-24T03:10:43.154Z,87
2018-12-24T03:10:55.556Z,87
2018-12-24T03:11:07.939Z,87
2018-12-24T03:11:20.334Z,87
2018-12-24T03:11:32.700Z,87
2018-12-24T03:11:45.062Z,87
2018-12-24T03:11:57.559Z,87
2018-12-24T03:12:09.954Z,87
2018-12-24T03:12:22.341Z,87
2018-12-24T03:12:34.688Z,87
2018-12-24T03:12:47.079Z,86
2018-12-24T03:13:09.230Z,86
2018-12-24T03:13:21.578Z,86
2018-12-24T03:13:34.042Z,86
2018-12-24T03:13:46.401Z,86
2018-12-24T03:13:58.755Z,86
2018-12-24T03:14:11.120Z,86
2018-12-24T03:14:23.478Z,86
2018-12-24T03:14:35.836Z,87
2018-12-24T03:14:48.202Z,87
2018-12-24T03:15:00.565Z,87
2018-12-24T03:15:12.934Z,87
2018-12-24T03:15:25.295Z,87
2018-12-24T03:15:37.685Z,87
2018-12-24T03:15:50.049Z,87
2018-12-24T03:16:02.416Z,87
2018-12-24T03:16:13.104Z,86
2018-12-24T03:16:23.775Z,86
2018-12-24T03:16:35.478Z,86
2018-12-24T03:16:46.845Z,86
2018-12-24T03:16:58.633Z,86
2018-12-24T03:17:12.241Z,86
2018-12-24T03:17:28.810Z,86
2018-12-24T03:17:51.758Z,86
2018-12-24T03:18:28.038Z,86
2018-12-24T03:19:29.557Z,87
2018-12-24T03:20:39.808Z,86
2018-12-24T03:21:50.138Z,86
2018-12-24T03:23:00.302Z,86
2018-12-24T03:24:10.576Z,87
2018-12-24T03:25:20.784Z,87
2018-12-24T03:26:30.933Z,87
2018-12-24T03:27:41.260Z,87
2018-12-24T03:28:51.633Z,87
2018-12-24T03:30:01.911Z,87
2018-12-24T03:31:12.242Z,87
2018-12-24T03:32:22.961Z,87
2018-12-24T03:33:33.326Z,87
2018-12-24T03:34:43.675Z,87
2018-12-24T03:35:53.915Z,87
2018-12-24T03:37:04.157Z,87
2018-12-24T03:38:14.313Z,87
2018-12-24T03:39:24.633Z,87
2018-12-24T03:40:34.898Z,87
2018-12-24T03:41:45.404Z,87
2018-12-24T03:42:55.821Z,87
2018-12-24T03:43:16.286Z,87
2018-12-24T03:43:26.878Z,87
2018-12-24T03:43:37.448Z,87
2018-12-24T03:43:48.407Z,87
2018-12-24T03:44:00.283Z,87
2018-12-24T03:44:13.651Z,87
2018-12-24T03:44:30.275Z,87
2018-12-24T03:44:53.350Z,87
2018-12-24T03:45:29.431Z,87
2018-12-24T03:46:31.045Z,87
2018-12-24T03:47:41.390Z,87
2018-12-24T03:48:51.624Z,87
2018-12-24T03:50:01.793Z,87
2018-12-24T03:51:12.188Z,87
2018-12-24T03:52:22.283Z,87
2018-12-24T03:53:32.671Z,87
2018-12-24T03:54:43.218Z,87
2018-12-24T03:55:53.519Z,87
2018-12-24T03:57:03.907Z,87
2018-12-24T03:58:14.125Z,87
2018-12-24T03:59:24.249Z,87
2018-12-24T04:00:34.585Z,87
2018-12-24T04:01:44.825Z,87
2018-12-24T04:02:55.175Z,87
2018-12-24T04:04:05.729Z,87
2018-12-24T04:05:15.950Z,87
2018-12-24T04:06:26.476Z,87
2018-12-24T04:07:36.742Z,87
2018-12-24T04:08:47.003Z,87
2018-12-24T04:09:57.529Z,87
2018-12-24T04:11:07.788Z,87
2018-12-24T04:12:17.968Z,87
2018-12-24T04:13:28.073Z,88
2018-12-24T04:14:38.399Z,88
2018-12-24T04:15:48.649Z,88
2018-12-24T04:16:59.021Z,88
2018-12-24T04:18:09.521Z,88
2018-12-24T04:19:19.753Z,88
2018-12-24T04:20:29.927Z,88
2018-12-24T04:21:40.198Z,88
2018-12-24T04:22:50.466Z,88
2018-12-24T04:24:00.784Z,87
2018-12-24T04:25:11.263Z,87
2018-12-24T04:26:21.467Z,87
2018-12-24T04:27:41.334Z,87
2018-12-24T04:27:52.703Z,87
2018-12-24T04:28:03.345Z,86
2018-12-24T04:28:13.993Z,86
2018-12-24T04:28:25.030Z,86
2018-12-24T04:28:36.761Z,86
2018-12-24T04:28:50.219Z,86
2018-12-24T04:29:06.873Z,86
2018-12-24T04:29:29.797Z,86
2018-12-24T04:30:05.583Z,86
2018-12-24T04:31:07.095Z,86
2018-12-24T04:32:17.514Z,86
2018-12-24T04:33:27.685Z,86
2018-12-24T04:34:37.912Z,86
2018-12-24T04:35:48.228Z,85
2018-12-24T04:36:58.571Z,85
2018-12-24T04:38:08.864Z,85
2018-12-24T04:39:19.189Z,85
2018-12-24T04:40:29.635Z,85
2018-12-24T04:41:40.023Z,85
2018-12-24T04:42:50.120Z,85
2018-12-24T04:44:00.545Z,85
2018-12-24T04:45:10.767Z,85
2018-12-24T04:46:20.971Z,85
2018-12-24T04:47:31.382Z,85
2018-12-24T04:48:41.619Z,85
2018-12-24T04:49:51.880Z,85
2018-12-24T04:51:02.095Z,86
2018-12-24T04:52:12.259Z,86
2018-12-24T04:53:22.746Z,86
2018-12-24T04:54:33.042Z,86
2018-12-24T04:55:43.423Z,86
2018-12-24T04:56:53.852Z,86
2018-12-24T04:58:04.099Z,86
2018-12-24T04:59:14.370Z,86
2018-12-24T05:00:24.678Z,86
2018-12-24T05:01:34.903Z,86
2018-12-24T05:02:45.143Z,86
2018-12-24T05:03:55.442Z,86
2018-12-24T05:05:05.758Z,86
2018-12-24T05:06:16.027Z,86
2018-12-24T05:07:26.154Z,86
2018-12-24T05:08:36.458Z,86
2018-12-24T05:09:46.635Z,86
2018-12-24T05:10:56.952Z,86
2018-12-24T05:12:07.124Z,86
2018-12-24T05:13:17.340Z,86
2018-12-24T05:14:27.578Z,86
2018-12-24T05:15:37.785Z,86
2018-12-24T05:16:48.058Z,86
2018-12-24T05:17:58.238Z,86
2018-12-24T05:19:08.558Z,86
2018-12-24T05:20:18.672Z,86
2018-12-24T05:21:29.052Z,86
2018-12-24T05:22:39.292Z,87
2018-12-24T05:23:49.555Z,87
2018-12-24T05:24:59.890Z,87
2018-12-24T05:26:10.065Z,87
2018-12-24T05:27:20.493Z,87
2018-12-24T05:28:30.718Z,87
2018-12-24T05:29:41.002Z,87
2018-12-24T05:30:51.145Z,87
2018-12-24T05:32:01.453Z,87
2018-12-24T05:33:11.911Z,87
2018-12-24T05:34:22.124Z,87
2018-12-24T05:35:32.540Z,87
2018-12-24T05:36:42.778Z,87
2018-12-24T05:37:53.056Z,87
2018-12-24T05:39:03.296Z,87
2018-12-24T05:40:13.743Z,87
2018-12-24T05:41:23.971Z,87
2018-12-24T05:42:34.081Z,87
2018-12-24T05:43:50.620Z,87
2018-12-24T05:44:01.188Z,87
2018-12-24T05:44:11.728Z,87
2018-12-24T05:44:22.426Z,87
2018-12-24T05:44:33.459Z,87
2018-12-24T05:44:45.366Z,87
2018-12-24T05:44:58.775Z,87
2018-12-24T05:45:15.402Z,87
2018-12-24T05:45:38.466Z,87
2018-12-24T05:46:14.452Z,87
2018-12-24T05:47:15.825Z,87
2018-12-24T05:48:25.991Z,87
2018-12-24T05:49:36.298Z,87
2018-12-24T05:50:46.520Z,87
2018-12-24T05:51:56.684Z,87
2018-12-24T05:53:06.875Z,87
2018-12-24T05:54:17.127Z,86
2018-12-24T05:55:27.357Z,86
2018-12-24T05:56:37.608Z,86
2018-12-24T05:56:50.042Z,86
2018-12-24T05:57:02.482Z,86
2018-12-24T05:57:14.811Z,86
2018-12-24T05:57:27.145Z,86
2018-12-24T05:57:39.497Z,86
2018-12-24T05:57:51.860Z,86
2018-12-24T05:58:04.194Z,86
2018-12-24T05:58:16.534Z,86
2018-12-24T05:58:28.891Z,86
2018-12-24T05:58:41.311Z,86
2018-12-24T05:58:53.647Z,86
2018-12-24T05:59:06.094Z,86
2018-12-24T05:59:18.439Z,86
2018-12-24T05:59:30.831Z,86
2018-12-24T05:59:43.200Z,86
2018-12-24T05:59:55.531Z,86
2018-12-24T06:00:07.875Z,86
2018-12-24T06:00:20.279Z,86
2018-12-24T06:00:32.649Z,86
2018-12-24T06:00:45.047Z,86
2018-12-24T06:00:57.415Z,86
2018-12-24T06:01:09.769Z,86
2018-12-24T06:01:22.150Z,86
2018-12-24T06:01:34.544Z,86
2018-12-24T06:01:46.933Z,86
2018-12-24T06:01:59.327Z,86
2018-12-24T06:02:11.664Z,86
2018-12-24T06:02:24.030Z,86
2018-12-24T06:02:36.399Z,86
2018-12-24T06:02:48.740Z,86
2018-12-24T06:03:01.076Z,86
2018-12-24T06:03:13.425Z,86
2018-12-24T06:03:25.754Z,86
2018-12-24T06:03:38.099Z,86
2018-12-24T06:03:50.470Z,86
2018-12-24T06:04:02.943Z,86
2018-12-24T06:04:15.299Z,86
2018-12-24T06:04:30.079Z,86
2018-12-24T06:04:42.439Z,86
2018-12-24T06:04:54.778Z,86
2018-12-24T06:05:07.146Z,86
2018-12-24T06:05:19.472Z,86
2018-12-24T06:05:31.821Z,86
2018-12-24T06:05:44.224Z,86
2018-12-24T06:05:56.554Z,86
2018-12-24T06:06:08.907Z,86
2018-12-24T06:06:21.257Z,86
2018-12-24T06:06:33.618Z,86
2018-12-24T06:06:45.999Z,86
2018-12-24T06:06:58.354Z,86
2018-12-24T06:07:10.723Z,86
2018-12-24T06:07:23.131Z,86
2018-12-24T06:07:35.465Z,86
2018-12-24T06:07:47.843Z,86
2018-12-24T06:08:00.208Z,86
2018-12-24T06:08:12.552Z,86
2018-12-24T06:08:25.065Z,86
2018-12-24T06:08:37.420Z,86
2018-12-24T06:08:49.753Z,86
2018-12-24T06:09:02.095Z,86
2018-12-24T06:09:14.434Z,86
2018-12-24T06:09:26.793Z,86
2018-12-24T06:09:39.123Z,86
2018-12-24T06:09:51.570Z,86
2018-12-24T06:10:03.899Z,86
2018-12-24T06:10:16.238Z,86
2018-12-24T06:10:28.583Z,86
2018-12-24T06:10:40.915Z,86
2018-12-24T06:10:53.353Z,86
2018-12-24T06:11:05.694Z,86
2018-12-24T06:11:18.030Z,86
2018-12-24T06:11:30.375Z,86
2018-12-24T06:11:42.737Z,86
2018-12-24T06:11:57.401Z,86
2018-12-24T06:12:09.751Z,86
2018-12-24T06:12:22.103Z,86
2018-12-24T06:12:34.451Z,86
2018-12-24T06:12:46.790Z,86
2018-12-24T06:12:59.138Z,86
2018-12-24T06:13:11.488Z,86
2018-12-24T06:13:23.928Z,86
2018-12-24T06:13:36.259Z,86
2018-12-24T06:13:48.650Z,86
2018-12-24T06:14:09.170Z,85
2018-12-24T06:14:21.514Z,85
2018-12-24T06:14:33.843Z,85
2018-12-24T06:14:46.170Z,85
2018-12-24T06:14:58.497Z,85
2018-12-24T06:15:10.851Z,85
2018-12-24T06:15:23.197Z,85
2018-12-24T06:15:35.531Z,85
2018-12-24T06:15:48.007Z,85
2018-12-24T06:16:00.358Z,85
2018-12-24T06:16:12.696Z,85
2018-12-24T06:16:25.032Z,85
2018-12-24T06:16:37.387Z,85
2018-12-24T06:16:49.708Z,85
2018-12-24T06:17:02.043Z,85
2018-12-24T06:17:14.557Z,85
2018-12-24T06:17:26.896Z,85
2018-12-24T06:17:39.243Z,86
2018-12-24T06:17:51.676Z,86
2018-12-24T06:18:05.640Z,86
2018-12-24T06:18:18.146Z,86
2018-12-24T06:18:30.481Z,86
2018-12-24T06:18:42.837Z,86
2018-12-24T06:18:55.174Z,86
2018-12-24T06:19:07.658Z,85
2018-12-24T06:19:20.012Z,85
2018-12-24T06:19:32.349Z,85
2018-12-24T06:19:44.685Z,85
2018-12-24T06:19:57.027Z,85
2018-12-24T06:20:09.374Z,85
2018-12-24T06:20:21.726Z,85
2018-12-24T06:20:42.143Z,85
2018-12-24T06:20:54.489Z,85
2018-12-24T06:21:06.819Z,85
2018-12-24T06:21:19.161Z,85
2018-12-24T06:21:31.506Z,85
2018-12-24T06:21:43.948Z,85
2018-12-24T06:21:56.307Z,85
2018-12-24T06:22:08.747Z,85
2018-12-24T06:22:21.090Z,85
2018-12-24T06:22:33.522Z,85
2018-12-24T06:22:45.847Z,85
2018-12-24T06:22:58.190Z,85
2018-12-24T06:23:10.576Z,85
2018-12-24T06:23:22.915Z,84
2018-12-24T06:23:35.340Z,84
2018-12-24T06:23:47.700Z,84
2018-12-24T06:24:00.047Z,84
2018-12-24T06:24:12.520Z,84
2018-12-24T06:24:24.918Z,84
2018-12-24T06:24:37.387Z,84
2018-12-24T06:24:49.728Z,84
2018-12-24T06:25:02.142Z,84
2018-12-24T06:25:14.762Z,84
2018-12-24T06:25:27.247Z,84
2018-12-24T06:25:39.673Z,84
2018-12-24T06:25:52.015Z,84
2018-12-24T06:26:05.929Z,84
2018-12-24T06:26:18.297Z,84
2018-12-24T06:26:30.719Z,84
2018-12-24T06:26:43.241Z,84
2018-12-24T06:26:55.614Z,84
2018-12-24T06:27:07.972Z,84
2018-12-24T06:27:20.318Z,84
2018-12-24T06:27:32.685Z,84
2018-12-24T06:27:45.171Z,84
2018-12-24T06:28:02.571Z,84
2018-12-24T06:28:15.082Z,84
2018-12-24T06:28:27.425Z,84
2018-12-24T06:28:39.863Z,84
2018-12-24T06:28:52.199Z,84
2018-12-24T06:29:04.551Z,84
2018-12-24T06:29:16.889Z,84
2018-12-24T06:29:29.253Z,84
2018-12-24T06:29:41.630Z,84
2018-12-24T06:29:53.979Z,84
2018-12-24T06:30:06.326Z,84
2018-12-24T06:30:18.662Z,84
2018-12-24T06:30:31.034Z,84
2018-12-24T06:30:43.476Z,84
2018-12-24T06:30:55.809Z,84
2018-12-24T06:31:08.164Z,84
2018-12-24T06:31:20.515Z,84
2018-12-24T06:31:32.868Z,84
2018-12-24T06:31:47.253Z,84
2018-12-24T06:31:59.591Z,84
2018-12-24T06:32:11.939Z,84
2018-12-24T06:32:24.290Z,84
2018-12-24T06:32:36.622Z,84
2018-12-24T06:32:48.971Z,84
2018-12-24T06:33:01.389Z,84
2018-12-24T06:33:13.745Z,84
2018-12-24T06:33:26.103Z,84
2018-12-24T06:33:38.487Z,84
2018-12-24T06:33:50.928Z,84
2018-12-24T06:34:03.280Z,84
2018-12-24T06:34:15.626Z,84
2018-12-24T06:34:27.970Z,84
2018-12-24T06:34:40.495Z,84
2018-12-24T06:34:52.833Z,84
2018-12-24T06:35:05.185Z,84
2018-12-24T06:35:17.541Z,84
2018-12-24T06:35:30.104Z,84
2018-12-24T06:35:42.584Z,84
2018-12-24T06:35:55.088Z,84
2018-12-24T06:36:07.436Z,84
2018-12-24T06:36:19.813Z,84
2018-12-24T06:36:32.359Z,84
2018-12-24T06:36:44.701Z,84
2018-12-24T06:36:57.045Z,84
2018-12-24T06:37:09.385Z,84
2018-12-24T06:37:21.765Z,84
2018-12-24T06:37:34.203Z,84
2018-12-24T06:37:46.549Z,84
2018-12-24T06:37:58.896Z,83
2018-12-24T06:38:11.248Z,83
2018-12-24T06:38:23.600Z,83
2018-12-24T06:38:35.936Z,83
2018-12-24T06:38:48.281Z,83
2018-12-24T06:39:00.626Z,83
2018-12-24T06:39:13.011Z,83
2018-12-24T06:39:25.390Z,83
2018-12-24T06:39:37.909Z,84
2018-12-24T06:39:50.252Z,84
2018-12-24T06:40:02.735Z,84
2018-12-24T06:40:15.102Z,84
2018-12-24T06:40:27.472Z,83
2018-12-24T06:40:39.818Z,83
2018-12-24T06:40:52.232Z,83
2018-12-24T06:41:04.567Z,83
2018-12-24T06:41:17.073Z,84
2018-12-24T06:41:29.416Z,84
2018-12-24T06:41:41.754Z,84
2018-12-24T06:41:54.145Z,84
2018-12-24T06:42:06.490Z,84
2018-12-24T06:42:20.526Z,84
2018-12-24T06:42:32.911Z,84
2018-12-24T06:42:45.270Z,84
2018-12-24T06:42:57.758Z,84
2018-12-24T06:43:10.104Z,84
2018-12-24T06:43:22.444Z,84
2018-12-24T06:43:34.772Z,84
2018-12-24T06:43:47.219Z,84
2018-12-24T06:44:07.759Z,84
2018-12-24T06:44:20.097Z,84
2018-12-24T06:44:32.454Z,84
2018-12-24T06:44:44.803Z,84
2018-12-24T06:44:57.162Z,84
2018-12-24T06:45:09.530Z,84
2018-12-24T06:45:21.986Z,84
2018-12-24T06:45:34.518Z,83
2018-12-24T06:45:46.854Z,83
2018-12-24T06:45:59.194Z,83
2018-12-24T06:46:11.554Z,83
2018-12-24T06:46:23.900Z,83
2018-12-24T06:46:36.313Z,83
2018-12-24T06:46:48.806Z,83
2018-12-24T06:47:01.150Z,83
2018-12-24T06:47:13.499Z,83
2018-12-24T06:47:25.898Z,83
2018-12-24T06:47:38.252Z,83
2018-12-24T06:47:50.653Z,83
2018-12-24T06:48:02.994Z,83
2018-12-24T06:48:15.340Z,83
2018-12-24T06:48:27.680Z,83
2018-12-24T06:48:40.016Z,83
2018-12-24T06:48:52.491Z,83
2018-12-24T06:49:04.851Z,83
2018-12-24T06:49:17.189Z,83
2018-12-24T06:49:29.552Z,83
2018-12-24T06:49:41.915Z,83
2018-12-24T06:49:54.290Z,83
2018-12-24T06:50:06.792Z,83
2018-12-24T06:50:21.392Z,83
2018-12-24T06:50:33.873Z,83
2018-12-24T06:50:46.233Z,83
2018-12-24T06:50:58.588Z,83
2018-12-24T06:51:10.953Z,83
2018-12-24T06:51:23.300Z,83
2018-12-24T06:51:35.659Z,83
2018-12-24T06:51:48.027Z,83
2018-12-24T06:52:00.373Z,83
2018-12-24T06:52:12.716Z,83
2018-12-24T06:52:25.159Z,83
2018-12-24T06:52:37.496Z,83
2018-12-24T06:52:49.862Z,83
2018-12-24T06:53:02.217Z,83
2018-12-24T06:53:14.576Z,83
2018-12-24T06:53:26.936Z,83
2018-12-24T06:53:39.290Z,83
2018-12-24T06:53:51.645Z,83
2018-12-24T06:54:04.053Z,83
2018-12-24T06:54:16.434Z,83
2018-12-24T06:54:28.807Z,83
2018-12-24T06:54:41.150Z,83
2018-12-24T06:54:53.531Z,84
2018-12-24T06:55:06.056Z,84
2018-12-24T06:55:18.492Z,84